createdAt,value
2018-11-14T00:00:06.263Z,1023.79
2018-11-14T00:00:17.202Z,1023.83
2018-11-14T00:00:26.272Z,1023.81
2018-11-14T00:00:36.260Z,1023.80
2018-11-14T00:00:46.258Z,1023.81
2018-11-14T00:00:56.259Z,1023.81
2018-11-14T00:01:06.255Z,1023.82
2018-11-14T00:01:16.254Z,1023.84
2018-11-14T00:01:26.251Z,1023.84
2018-11-14T00:01:36.251Z,1023.83
2018-11-14T00:01:46.247Z,1023.84
2018-11-14T00:01:56.245Z,1023.84
2018-11-14T00:02:06.245Z,1023.82
2018-11-14T00:02:16.243Z,1023.84
2018-11-14T00:02:26.242Z,1023.82
2018-11-14T00:02:36.240Z,1023.84
2018-11-14T00:02:46.238Z,1023.81
2018-11-14T00:02:56.236Z,1023.86
2018-11-14T00:03:06.235Z,1023.84
2018-11-14T00:03:16.233Z,1023.86
2018-11-14T00:03:26.231Z,1023.86
2018-11-14T00:03:36.229Z,1023.88
2018-11-14T00:03:46.227Z,1023.85
2018-11-14T00:03:56.227Z,1023.84
2018-11-14T00:04:06.223Z,1023.83
2018-11-14T00:04:16.221Z,1023.87
2018-11-14T00:04:26.220Z,1023.84
2018-11-14T00:04:36.219Z,1023.82
2018-11-14T00:04:46.217Z,1023.83
2018-11-14T00:04:56.214Z,1023.84
2018-11-14T00:05:06.214Z,1023.84
2018-11-14T00:05:16.214Z,1023.85
2018-11-14T00:05:26.238Z,1023.82
2018-11-14T00:05:36.207Z,1023.80
2018-11-14T00:05:46.206Z,1023.85
2018-11-14T00:05:56.204Z,1023.85
2018-11-14T00:06:06.202Z,1023.85
2018-11-14T00:06:16.199Z,1023.81
2018-11-14T00:06:26.198Z,1023.80
2018-11-14T00:06:36.197Z,1023.83
2018-11-14T00:06:46.194Z,1023.83
2018-11-14T00:06:56.194Z,1023.81
2018-11-14T00:07:06.191Z,1023.85
2018-11-14T00:07:16.189Z,1023.85
2018-11-14T00:07:26.188Z,1023.86
2018-11-14T00:07:36.187Z,1023.83
2018-11-14T00:07:46.188Z,1023.83
2018-11-14T00:07:56.186Z,1023.82
2018-11-14T00:08:06.184Z,1023.87
2018-11-14T00:08:16.185Z,1023.81
2018-11-14T00:08:26.178Z,1023.80
2018-11-14T00:08:36.175Z,1023.82
2018-11-14T00:08:46.174Z,1023.87
2018-11-14T00:08:56.172Z,1023.81
2018-11-14T00:09:06.170Z,1023.82
2018-11-14T00:09:16.167Z,1023.82
2018-11-14T00:09:26.176Z,1023.82
2018-11-14T00:09:36.334Z,1023.80
2018-11-14T00:09:46.325Z,1023.81
2018-11-14T00:09:56.165Z,1023.84
2018-11-14T00:10:06.222Z,1023.83
2018-11-14T00:10:16.249Z,1023.85
2018-11-14T00:10:26.156Z,1023.84
2018-11-14T00:10:36.157Z,1023.83
2018-11-14T00:10:46.151Z,1023.84
2018-11-14T00:10:56.153Z,1023.80
2018-11-14T00:11:06.149Z,1023.84
2018-11-14T00:11:16.148Z,1023.84
2018-11-14T00:11:26.146Z,1023.81
2018-11-14T00:11:36.145Z,1023.82
2018-11-14T00:11:46.195Z,1023.84
2018-11-14T00:11:56.141Z,1023.81
2018-11-14T00:12:06.136Z,1023.80
2018-11-14T00:12:16.135Z,1023.82
2018-11-14T00:12:26.135Z,1023.83
2018-11-14T00:12:36.137Z,1023.83
2018-11-14T00:12:46.132Z,1023.80
2018-11-14T00:12:56.129Z,1023.80
2018-11-14T00:13:06.129Z,1023.81
2018-11-14T00:13:16.124Z,1023.80
2018-11-14T00:13:26.125Z,1023.83
2018-11-14T00:13:36.122Z,1023.79
2018-11-14T00:13:46.120Z,1023.82
2018-11-14T00:13:56.119Z,1023.82
2018-11-14T00:14:06.123Z,1023.79
2018-11-14T00:14:16.131Z,1023.80
2018-11-14T00:14:26.113Z,1023.78
2018-11-14T00:14:36.112Z,1023.79
2018-11-14T00:14:46.109Z,1023.79
2018-11-14T00:14:56.109Z,1023.79
2018-11-14T00:15:06.107Z,1023.77
2018-11-14T00:15:16.107Z,1023.78
2018-11-14T00:15:26.102Z,1023.78
2018-11-14T00:15:36.102Z,1023.78
2018-11-14T00:15:46.100Z,1023.79
2018-11-14T00:15:56.098Z,1023.80
2018-11-14T00:16:06.095Z,1023.81
2018-11-14T00:16:16.095Z,1023.80
2018-11-14T00:16:26.091Z,1023.79
2018-11-14T00:16:36.089Z,1023.82
2018-11-14T00:16:46.088Z,1023.79
2018-11-14T00:16:56.090Z,1023.79
2018-11-14T00:17:06.085Z,1023.83
2018-11-14T00:17:16.083Z,1023.79
2018-11-14T00:17:26.081Z,1023.81
2018-11-14T00:17:36.080Z,1023.79
2018-11-14T00:17:46.078Z,1023.81
2018-11-14T00:17:56.077Z,1023.79
2018-11-14T00:18:06.075Z,1023.78
2018-11-14T00:18:16.073Z,1023.79
2018-11-14T00:18:26.069Z,1023.80
2018-11-14T00:18:36.068Z,1023.81
2018-11-14T00:18:46.068Z,1023.82
2018-11-14T00:18:56.064Z,1023.81
2018-11-14T00:19:06.064Z,1023.80
2018-11-14T00:19:16.089Z,1023.80
2018-11-14T00:19:26.136Z,1023.83
2018-11-14T00:19:36.060Z,1023.80
2018-11-14T00:19:46.056Z,1023.80
2018-11-14T00:19:56.277Z,1023.83
2018-11-14T00:20:06.052Z,1023.83
2018-11-14T00:20:16.051Z,1023.81
2018-11-14T00:20:26.048Z,1023.80
2018-11-14T00:20:36.048Z,1023.79
2018-11-14T00:20:46.046Z,1023.83
2018-11-14T00:20:56.044Z,1023.81
2018-11-14T00:21:06.047Z,1023.81
2018-11-14T00:21:16.040Z,1023.82
2018-11-14T00:21:26.039Z,1023.79
2018-11-14T00:21:36.037Z,1023.81
2018-11-14T00:21:46.463Z,1023.80
2018-11-14T00:21:56.034Z,1023.78
2018-11-14T00:22:06.032Z,1023.83
2018-11-14T00:22:16.030Z,1023.78
2018-11-14T00:22:26.028Z,1023.81
2018-11-14T00:22:36.026Z,1023.81
2018-11-14T00:22:46.032Z,1023.81
2018-11-14T00:22:56.023Z,1023.80
2018-11-14T00:23:06.020Z,1023.81
2018-11-14T00:23:16.043Z,1023.80
2018-11-14T00:23:26.018Z,1023.82
2018-11-14T00:23:36.016Z,1023.77
2018-11-14T00:23:46.015Z,1023.79
2018-11-14T00:23:56.010Z,1023.80
2018-11-14T00:24:06.014Z,1023.82
2018-11-14T00:24:16.008Z,1023.77
2018-11-14T00:24:26.074Z,1023.80
2018-11-14T00:24:36.031Z,1023.78
2018-11-14T00:24:46.056Z,1023.78
2018-11-14T00:24:56.002Z,1023.78
2018-11-14T00:25:06.001Z,1023.75
2018-11-14T00:25:15.997Z,1023.76
2018-11-14T00:25:25.996Z,1023.78
2018-11-14T00:25:35.994Z,1023.78
2018-11-14T00:25:46.016Z,1023.76
2018-11-14T00:25:55.993Z,1023.77
2018-11-14T00:26:05.989Z,1023.78
2018-11-14T00:26:15.988Z,1023.78
2018-11-14T00:26:25.987Z,1023.81
2018-11-14T00:26:36.030Z,1023.80
2018-11-14T00:26:46.082Z,1023.83
2018-11-14T00:26:55.980Z,1023.80
2018-11-14T00:27:05.979Z,1023.78
2018-11-14T00:27:15.978Z,1023.83
2018-11-14T00:27:25.976Z,1023.79
2018-11-14T00:27:35.974Z,1023.83
2018-11-14T00:27:45.994Z,1023.81
2018-11-14T00:27:55.982Z,1023.79
2018-11-14T00:28:05.968Z,1023.82
2018-11-14T00:28:15.968Z,1023.82
2018-11-14T00:28:25.966Z,1023.82
2018-11-14T00:28:36.314Z,1023.80
2018-11-14T00:28:45.960Z,1023.84
2018-11-14T00:28:56.134Z,1023.83
2018-11-14T00:29:05.958Z,1023.83
2018-11-14T00:29:15.979Z,1023.81
2018-11-14T00:29:25.992Z,1023.80
2018-11-14T00:29:35.952Z,1023.82
2018-11-14T00:29:45.950Z,1023.85
2018-11-14T00:29:55.946Z,1023.83
2018-11-14T00:30:05.949Z,1023.79
2018-11-14T00:30:15.961Z,1023.80
2018-11-14T00:30:25.946Z,1023.81
2018-11-14T00:30:35.942Z,1023.82
2018-11-14T00:30:45.940Z,1023.81
2018-11-14T00:30:55.940Z,1023.82
2018-11-14T00:31:05.936Z,1023.83
2018-11-14T00:31:15.935Z,1023.83
2018-11-14T00:31:25.933Z,1023.83
2018-11-14T00:31:35.928Z,1023.80
2018-11-14T00:31:45.927Z,1023.80
2018-11-14T00:31:55.927Z,1023.81
2018-11-14T00:32:05.928Z,1023.83
2018-11-14T00:32:15.923Z,1023.82
2018-11-14T00:32:25.922Z,1023.87
2018-11-14T00:32:35.920Z,1023.85
2018-11-14T00:32:45.924Z,1023.85
2018-11-14T00:32:55.918Z,1023.84
2018-11-14T00:33:05.986Z,1023.80
2018-11-14T00:33:16.214Z,1023.83
2018-11-14T00:33:25.948Z,1023.83
2018-11-14T00:33:35.910Z,1023.82
2018-11-14T00:33:45.914Z,1023.81
2018-11-14T00:33:55.907Z,1023.84
2018-11-14T00:34:05.904Z,1023.82
2018-11-14T00:34:15.900Z,1023.85
2018-11-14T00:34:26.141Z,1023.83
2018-11-14T00:34:35.919Z,1023.84
2018-11-14T00:34:45.946Z,1023.87
2018-11-14T00:34:55.967Z,1023.84
2018-11-14T00:35:05.896Z,1023.84
2018-11-14T00:35:15.897Z,1023.85
2018-11-14T00:35:25.890Z,1023.84
2018-11-14T00:35:35.944Z,1023.84
2018-11-14T00:35:46.029Z,1023.86
2018-11-14T00:35:55.892Z,1023.87
2018-11-14T00:36:05.887Z,1023.86
2018-11-14T00:36:15.881Z,1023.86
2018-11-14T00:36:25.879Z,1023.83
2018-11-14T00:36:35.878Z,1023.84
2018-11-14T00:36:45.879Z,1023.83
2018-11-14T00:36:55.960Z,1023.85
2018-11-14T00:37:05.872Z,1023.88
2018-11-14T00:37:15.870Z,1023.85
2018-11-14T00:37:25.869Z,1023.89
2018-11-14T00:37:35.867Z,1023.89
2018-11-14T00:37:45.866Z,1023.87
2018-11-14T00:37:55.866Z,1023.88
2018-11-14T00:38:05.863Z,1023.84
2018-11-14T00:38:15.861Z,1023.90
2018-11-14T00:38:25.857Z,1023.87
2018-11-14T00:38:35.857Z,1023.85
2018-11-14T00:38:45.855Z,1023.83
2018-11-14T00:38:55.853Z,1023.88
2018-11-14T00:39:05.851Z,1023.85
2018-11-14T00:39:15.850Z,1023.85
2018-11-14T00:39:25.847Z,1023.84
2018-11-14T00:39:35.846Z,1023.83
2018-11-14T00:39:45.854Z,1023.82
2018-11-14T00:39:55.844Z,1023.89
2018-11-14T00:40:05.840Z,1023.88
2018-11-14T00:40:15.839Z,1023.87
2018-11-14T00:40:25.837Z,1023.84
2018-11-14T00:40:35.835Z,1023.84
2018-11-14T00:40:45.838Z,1023.86
2018-11-14T00:40:55.832Z,1023.86
2018-11-14T00:41:05.828Z,1023.86
2018-11-14T00:41:15.829Z,1023.83
2018-11-14T00:41:25.831Z,1023.85
2018-11-14T00:41:35.822Z,1023.84
2018-11-14T00:41:45.823Z,1023.85
2018-11-14T00:41:55.825Z,1023.85
2018-11-14T00:42:05.820Z,1023.83
2018-11-14T00:42:15.817Z,1023.82
2018-11-14T00:42:25.816Z,1023.82
2018-11-14T00:42:35.814Z,1023.82
2018-11-14T00:42:45.811Z,1023.84
2018-11-14T00:42:55.809Z,1023.82
2018-11-14T00:43:05.809Z,1023.83
2018-11-14T00:43:15.806Z,1023.80
2018-11-14T00:43:25.804Z,1023.86
2018-11-14T00:43:35.806Z,1023.84
2018-11-14T00:43:45.803Z,1023.84
2018-11-14T00:43:55.800Z,1023.85
2018-11-14T00:44:05.799Z,1023.83
2018-11-14T00:44:15.796Z,1023.80
2018-11-14T00:44:25.794Z,1023.83
2018-11-14T00:44:35.792Z,1023.82
2018-11-14T00:44:45.797Z,1023.83
2018-11-14T00:44:55.788Z,1023.82
2018-11-14T00:45:05.787Z,1023.80
2018-11-14T00:45:15.784Z,1023.78
2018-11-14T00:45:25.784Z,1023.80
2018-11-14T00:45:35.782Z,1023.84
2018-11-14T00:45:45.783Z,1023.84
2018-11-14T00:45:55.779Z,1023.82
2018-11-14T00:46:05.776Z,1023.84
2018-11-14T00:46:15.773Z,1023.83
2018-11-14T00:46:25.773Z,1023.84
2018-11-14T00:46:35.774Z,1023.84
2018-11-14T00:46:45.769Z,1023.85
2018-11-14T00:46:55.768Z,1023.86
2018-11-14T00:47:05.766Z,1023.85
2018-11-14T00:47:15.763Z,1023.86
2018-11-14T00:47:25.761Z,1023.84
2018-11-14T00:47:35.761Z,1023.88
2018-11-14T00:47:45.758Z,1023.84
2018-11-14T00:47:55.757Z,1023.84
2018-11-14T00:48:05.765Z,1023.85
2018-11-14T00:48:15.754Z,1023.82
2018-11-14T00:48:25.752Z,1023.85
2018-11-14T00:48:35.750Z,1023.82
2018-11-14T00:48:45.746Z,1023.86
2018-11-14T00:48:55.745Z,1023.85
2018-11-14T00:49:05.745Z,1023.85
2018-11-14T00:49:15.742Z,1023.83
2018-11-14T00:49:25.741Z,1023.80
2018-11-14T00:49:35.740Z,1023.82
2018-11-14T00:49:45.748Z,1023.80
2018-11-14T00:49:55.737Z,1023.81
2018-11-14T00:50:05.734Z,1023.83
2018-11-14T00:50:15.732Z,1023.80
2018-11-14T00:50:25.733Z,1023.81
2018-11-14T00:50:35.730Z,1023.79
2018-11-14T00:50:45.726Z,1023.79
2018-11-14T00:50:55.725Z,1023.79
2018-11-14T00:51:05.724Z,1023.80
2018-11-14T00:51:15.722Z,1023.77
2018-11-14T00:51:25.720Z,1023.79
2018-11-14T00:51:35.718Z,1023.80
2018-11-14T00:51:45.716Z,1023.77
2018-11-14T00:51:55.714Z,1023.75
2018-11-14T00:52:05.713Z,1023.77
2018-11-14T00:52:15.709Z,1023.74
2018-11-14T00:52:25.709Z,1023.77
2018-11-14T00:52:35.708Z,1023.79
2018-11-14T00:52:45.705Z,1023.80
2018-11-14T00:52:55.704Z,1023.77
2018-11-14T00:53:05.702Z,1023.78
2018-11-14T00:53:15.700Z,1023.80
2018-11-14T00:53:25.706Z,1023.78
2018-11-14T00:53:35.697Z,1023.78
2018-11-14T00:53:45.694Z,1023.78
2018-11-14T00:53:55.693Z,1023.81
2018-11-14T00:54:05.692Z,1023.80
2018-11-14T00:54:15.690Z,1023.77
2018-11-14T00:54:25.688Z,1023.78
2018-11-14T00:54:35.686Z,1023.80
2018-11-14T00:54:45.684Z,1023.78
2018-11-14T00:54:55.685Z,1023.81
2018-11-14T00:55:05.681Z,1023.81
2018-11-14T00:55:15.677Z,1023.79
2018-11-14T00:55:25.678Z,1023.81
2018-11-14T00:55:35.675Z,1023.82
2018-11-14T00:55:45.673Z,1023.83
2018-11-14T00:55:55.670Z,1023.80
2018-11-14T00:56:05.672Z,1023.79
2018-11-14T00:56:15.669Z,1023.82
2018-11-14T00:56:25.668Z,1023.82
2018-11-14T00:56:35.665Z,1023.79
2018-11-14T00:56:45.664Z,1023.78
2018-11-14T00:56:55.662Z,1023.81
2018-11-14T00:57:05.659Z,1023.80
2018-11-14T00:57:15.658Z,1023.82
2018-11-14T00:57:25.657Z,1023.80
2018-11-14T00:57:35.655Z,1023.81
2018-11-14T00:57:45.653Z,1023.80
2018-11-14T00:57:55.651Z,1023.80
2018-11-14T00:58:05.651Z,1023.79
2018-11-14T00:58:15.646Z,1023.80
2018-11-14T00:58:25.646Z,1023.80
2018-11-14T00:58:35.644Z,1023.78
2018-11-14T00:58:45.641Z,1023.79
2018-11-14T00:58:55.642Z,1023.78
2018-11-14T00:59:05.640Z,1023.81
2018-11-14T00:59:15.636Z,1023.79
2018-11-14T00:59:25.638Z,1023.76
2018-11-14T00:59:35.633Z,1023.79
2018-11-14T00:59:45.631Z,1023.78
2018-11-14T00:59:55.696Z,1023.77
2018-11-14T01:00:05.733Z,1023.77
2018-11-14T01:00:15.625Z,1023.79
2018-11-14T01:00:25.624Z,1023.77
2018-11-14T01:00:35.621Z,1023.78
2018-11-14T01:00:45.622Z,1023.79
2018-11-14T01:00:55.619Z,1023.79
2018-11-14T01:01:05.615Z,1023.79
2018-11-14T01:01:15.616Z,1023.77
2018-11-14T01:01:25.628Z,1023.75
2018-11-14T01:01:35.710Z,1023.81
2018-11-14T01:01:45.689Z,1023.77
2018-11-14T01:01:55.606Z,1023.77
2018-11-14T01:02:05.705Z,1023.78
2018-11-14T01:02:15.603Z,1023.80
2018-11-14T01:02:25.603Z,1023.77
2018-11-14T01:02:36.252Z,1023.77
2018-11-14T01:02:45.604Z,1023.78
2018-11-14T01:02:55.597Z,1023.77
2018-11-14T01:03:05.596Z,1023.76
2018-11-14T01:03:15.644Z,1023.79
2018-11-14T01:03:25.594Z,1023.78
2018-11-14T01:03:35.589Z,1023.79
2018-11-14T01:03:45.587Z,1023.79
2018-11-14T01:03:55.587Z,1023.79
2018-11-14T01:04:05.584Z,1023.80
2018-11-14T01:04:15.583Z,1023.80
2018-11-14T01:04:25.581Z,1023.82
2018-11-14T01:04:35.580Z,1023.80
2018-11-14T01:04:45.576Z,1023.82
2018-11-14T01:04:55.586Z,1023.79
2018-11-14T01:05:05.575Z,1023.84
2018-11-14T01:05:15.572Z,1023.79
2018-11-14T01:05:25.574Z,1023.83
2018-11-14T01:05:35.570Z,1023.81
2018-11-14T01:05:45.567Z,1023.85
2018-11-14T01:05:55.574Z,1023.83
2018-11-14T01:06:05.562Z,1023.82
2018-11-14T01:06:15.576Z,1023.85
2018-11-14T01:06:25.560Z,1023.83
2018-11-14T01:06:35.558Z,1023.82
2018-11-14T01:06:45.557Z,1023.79
2018-11-14T01:06:55.558Z,1023.83
2018-11-14T01:07:05.554Z,1023.80
2018-11-14T01:07:15.551Z,1023.78
2018-11-14T01:07:25.550Z,1023.82
2018-11-14T01:07:35.548Z,1023.80
2018-11-14T01:07:45.543Z,1023.79
2018-11-14T01:07:55.544Z,1023.77
2018-11-14T01:08:05.541Z,1023.77
2018-11-14T01:08:15.540Z,1023.79
2018-11-14T01:08:25.537Z,1023.79
2018-11-14T01:08:35.536Z,1023.78
2018-11-14T01:08:45.534Z,1023.80
2018-11-14T01:08:55.534Z,1023.77
2018-11-14T01:09:05.592Z,1023.78
2018-11-14T01:09:15.596Z,1023.78
2018-11-14T01:09:25.529Z,1023.82
2018-11-14T01:09:35.525Z,1023.76
2018-11-14T01:09:45.526Z,1023.77
2018-11-14T01:09:55.523Z,1023.78
2018-11-14T01:10:05.526Z,1023.76
2018-11-14T01:10:15.521Z,1023.77
2018-11-14T01:10:25.521Z,1023.75
2018-11-14T01:10:35.517Z,1023.75
2018-11-14T01:10:45.512Z,1023.74
2018-11-14T01:10:55.512Z,1023.79
2018-11-14T01:11:05.509Z,1023.79
2018-11-14T01:11:15.508Z,1023.76
2018-11-14T01:11:25.508Z,1023.72
2018-11-14T01:11:35.504Z,1023.75
2018-11-14T01:11:45.503Z,1023.76
2018-11-14T01:11:55.502Z,1023.73
2018-11-14T01:12:05.502Z,1023.75
2018-11-14T01:12:15.709Z,1023.74
2018-11-14T01:12:25.496Z,1023.75
2018-11-14T01:12:35.495Z,1023.75
2018-11-14T01:12:45.495Z,1023.76
2018-11-14T01:12:55.505Z,1023.72
2018-11-14T01:13:05.622Z,1023.73
2018-11-14T01:13:15.608Z,1023.74
2018-11-14T01:13:25.487Z,1023.72
2018-11-14T01:13:35.484Z,1023.72
2018-11-14T01:13:45.481Z,1023.72
2018-11-14T01:13:55.480Z,1023.74
2018-11-14T01:14:05.478Z,1023.74
2018-11-14T01:14:15.477Z,1023.72
2018-11-14T01:14:25.477Z,1023.74
2018-11-14T01:14:35.472Z,1023.79
2018-11-14T01:14:45.473Z,1023.77
2018-11-14T01:14:55.468Z,1023.77
2018-11-14T01:15:05.471Z,1023.74
2018-11-14T01:15:15.468Z,1023.74
2018-11-14T01:15:25.465Z,1023.75
2018-11-14T01:15:35.463Z,1023.74
2018-11-14T01:15:45.461Z,1023.74
2018-11-14T01:15:55.460Z,1023.75
2018-11-14T01:16:05.457Z,1023.75
2018-11-14T01:16:15.457Z,1023.79
2018-11-14T01:16:25.457Z,1023.74
2018-11-14T01:16:35.453Z,1023.77
2018-11-14T01:16:45.450Z,1023.79
2018-11-14T01:16:55.449Z,1023.76
2018-11-14T01:17:05.454Z,1023.79
2018-11-14T01:17:15.547Z,1023.78
2018-11-14T01:17:25.781Z,1023.82
2018-11-14T01:17:35.441Z,1023.77
2018-11-14T01:17:45.474Z,1023.75
2018-11-14T01:17:55.437Z,1023.77
2018-11-14T01:18:05.756Z,1023.76
2018-11-14T01:18:15.435Z,1023.79
2018-11-14T01:18:25.431Z,1023.78
2018-11-14T01:18:35.431Z,1023.76
2018-11-14T01:18:45.547Z,1023.75
2018-11-14T01:18:55.426Z,1023.78
2018-11-14T01:19:05.425Z,1023.77
2018-11-14T01:19:15.422Z,1023.78
2018-11-14T01:19:25.424Z,1023.82
2018-11-14T01:19:35.417Z,1023.77
2018-11-14T01:19:45.418Z,1023.77
2018-11-14T01:19:55.416Z,1023.76
2018-11-14T01:20:05.427Z,1023.79
2018-11-14T01:20:15.412Z,1023.79
2018-11-14T01:20:25.410Z,1023.78
2018-11-14T01:20:35.410Z,1023.79
2018-11-14T01:20:45.406Z,1023.78
2018-11-14T01:20:55.411Z,1023.78
2018-11-14T01:21:05.404Z,1023.82
2018-11-14T01:21:15.402Z,1023.81
2018-11-14T01:21:25.439Z,1023.78
2018-11-14T01:21:35.404Z,1023.79
2018-11-14T01:21:45.560Z,1023.77
2018-11-14T01:21:55.396Z,1023.78
2018-11-14T01:22:05.393Z,1023.78
2018-11-14T01:22:15.391Z,1023.78
2018-11-14T01:22:25.390Z,1023.75
2018-11-14T01:22:35.388Z,1023.77
2018-11-14T01:22:45.386Z,1023.73
2018-11-14T01:22:55.385Z,1023.75
2018-11-14T01:23:05.383Z,1023.74
2018-11-14T01:23:15.379Z,1023.75
2018-11-14T01:23:25.379Z,1023.75
2018-11-14T01:23:35.378Z,1023.72
2018-11-14T01:23:45.376Z,1023.75
2018-11-14T01:23:55.373Z,1023.74
2018-11-14T01:24:05.373Z,1023.73
2018-11-14T01:24:15.370Z,1023.70
2018-11-14T01:24:25.388Z,1023.73
2018-11-14T01:24:35.366Z,1023.70
2018-11-14T01:24:45.364Z,1023.71
2018-11-14T01:24:55.363Z,1023.75
2018-11-14T01:25:05.361Z,1023.70
2018-11-14T01:25:15.358Z,1023.73
2018-11-14T01:25:25.359Z,1023.73
2018-11-14T01:25:35.358Z,1023.72
2018-11-14T01:25:45.353Z,1023.70
2018-11-14T01:25:55.351Z,1023.72
2018-11-14T01:26:05.351Z,1023.71
2018-11-14T01:26:15.350Z,1023.69
2018-11-14T01:26:25.346Z,1023.68
2018-11-14T01:26:35.347Z,1023.71
2018-11-14T01:26:45.343Z,1023.72
2018-11-14T01:26:55.405Z,1023.70
2018-11-14T01:27:05.412Z,1023.68
2018-11-14T01:27:15.338Z,1023.70
2018-11-14T01:27:25.336Z,1023.67
2018-11-14T01:27:35.336Z,1023.67
2018-11-14T01:27:45.333Z,1023.71
2018-11-14T01:27:55.346Z,1023.66
2018-11-14T01:28:05.329Z,1023.70
2018-11-14T01:28:15.328Z,1023.67
2018-11-14T01:28:25.326Z,1023.69
2018-11-14T01:28:35.324Z,1023.70
2018-11-14T01:28:45.322Z,1023.65
2018-11-14T01:28:55.322Z,1023.68
2018-11-14T01:29:05.319Z,1023.70
2018-11-14T01:29:15.317Z,1023.67
2018-11-14T01:29:25.318Z,1023.67
2018-11-14T01:29:35.314Z,1023.69
2018-11-14T01:29:45.316Z,1023.68
2018-11-14T01:29:55.310Z,1023.67
2018-11-14T01:30:05.312Z,1023.66
2018-11-14T01:30:15.314Z,1023.67
2018-11-14T01:30:25.311Z,1023.69
2018-11-14T01:30:35.303Z,1023.69
2018-11-14T01:30:45.301Z,1023.70
2018-11-14T01:30:55.301Z,1023.69
2018-11-14T01:31:05.298Z,1023.71
2018-11-14T01:31:15.296Z,1023.70
2018-11-14T01:31:25.293Z,1023.68
2018-11-14T01:31:35.292Z,1023.67
2018-11-14T01:31:45.291Z,1023.66
2018-11-14T01:31:55.289Z,1023.70
2018-11-14T01:32:05.288Z,1023.68
2018-11-14T01:32:15.287Z,1023.69
2018-11-14T01:32:25.283Z,1023.71
2018-11-14T01:32:35.282Z,1023.67
2018-11-14T01:32:45.280Z,1023.68
2018-11-14T01:32:55.278Z,1023.68
2018-11-14T01:33:05.276Z,1023.64
2018-11-14T01:33:15.275Z,1023.66
2018-11-14T01:33:25.277Z,1023.66
2018-11-14T01:33:35.271Z,1023.66
2018-11-14T01:33:45.268Z,1023.65
2018-11-14T01:33:55.320Z,1023.67
2018-11-14T01:34:05.295Z,1023.66
2018-11-14T01:34:15.265Z,1023.63
2018-11-14T01:34:25.263Z,1023.66
2018-11-14T01:34:35.261Z,1023.65
2018-11-14T01:34:45.259Z,1023.66
2018-11-14T01:34:55.259Z,1023.67
2018-11-14T01:35:05.254Z,1023.69
2018-11-14T01:35:15.254Z,1023.69
2018-11-14T01:35:25.253Z,1023.67
2018-11-14T01:35:35.266Z,1023.70
2018-11-14T01:35:45.273Z,1023.67
2018-11-14T01:35:55.363Z,1023.65
2018-11-14T01:36:05.246Z,1023.68
2018-11-14T01:36:15.242Z,1023.66
2018-11-14T01:36:25.241Z,1023.70
2018-11-14T01:36:35.237Z,1023.68
2018-11-14T01:36:45.240Z,1023.66
2018-11-14T01:36:55.235Z,1023.66
2018-11-14T01:37:05.235Z,1023.69
2018-11-14T01:37:15.232Z,1023.66
2018-11-14T01:37:25.230Z,1023.67
2018-11-14T01:37:35.232Z,1023.68
2018-11-14T01:37:45.226Z,1023.68
2018-11-14T01:37:55.225Z,1023.67
2018-11-14T01:38:05.223Z,1023.65
2018-11-14T01:38:15.221Z,1023.68
2018-11-14T01:38:25.219Z,1023.69
2018-11-14T01:38:35.218Z,1023.67
2018-11-14T01:38:45.216Z,1023.70
2018-11-14T01:38:55.214Z,1023.65
2018-11-14T01:39:05.211Z,1023.68
2018-11-14T01:39:15.210Z,1023.68
2018-11-14T01:39:25.209Z,1023.67
2018-11-14T01:39:35.207Z,1023.66
2018-11-14T01:39:45.209Z,1023.64
2018-11-14T01:39:55.202Z,1023.64
2018-11-14T01:40:05.201Z,1023.67
2018-11-14T01:40:15.200Z,1023.63
2018-11-14T01:40:25.197Z,1023.66
2018-11-14T01:40:35.196Z,1023.63
2018-11-14T01:40:45.194Z,1023.64
2018-11-14T01:40:55.197Z,1023.64
2018-11-14T01:41:05.274Z,1023.62
2018-11-14T01:41:15.190Z,1023.61
2018-11-14T01:41:25.234Z,1023.63
2018-11-14T01:41:35.186Z,1023.60
2018-11-14T01:41:45.188Z,1023.62
2018-11-14T01:41:55.182Z,1023.63
2018-11-14T01:42:05.181Z,1023.61
2018-11-14T01:42:15.179Z,1023.61
2018-11-14T01:42:25.176Z,1023.61
2018-11-14T01:42:35.718Z,1023.60
2018-11-14T01:42:45.174Z,1023.57
2018-11-14T01:42:55.172Z,1023.58
2018-11-14T01:43:05.171Z,1023.59
2018-11-14T01:43:15.168Z,1023.60
2018-11-14T01:43:25.165Z,1023.58
2018-11-14T01:43:35.165Z,1023.60
2018-11-14T01:43:45.164Z,1023.59
2018-11-14T01:43:55.162Z,1023.58
2018-11-14T01:44:05.160Z,1023.57
2018-11-14T01:44:15.157Z,1023.55
2018-11-14T01:44:25.203Z,1023.58
2018-11-14T01:44:35.154Z,1023.60
2018-11-14T01:44:45.151Z,1023.57
2018-11-14T01:44:55.155Z,1023.62
2018-11-14T01:45:05.153Z,1023.61
2018-11-14T01:45:15.148Z,1023.59
2018-11-14T01:45:25.145Z,1023.61
2018-11-14T01:45:35.141Z,1023.61
2018-11-14T01:45:45.142Z,1023.56
2018-11-14T01:45:55.140Z,1023.54
2018-11-14T01:46:05.139Z,1023.59
2018-11-14T01:46:15.136Z,1023.56
2018-11-14T01:46:25.133Z,1023.57
2018-11-14T01:46:35.131Z,1023.59
2018-11-14T01:46:45.133Z,1023.56
2018-11-14T01:46:55.129Z,1023.59
2018-11-14T01:47:05.127Z,1023.59
2018-11-14T01:47:15.125Z,1023.58
2018-11-14T01:47:25.124Z,1023.59
2018-11-14T01:47:35.123Z,1023.55
2018-11-14T01:47:45.123Z,1023.55
2018-11-14T01:47:55.119Z,1023.55
2018-11-14T01:48:05.117Z,1023.59
2018-11-14T01:48:15.116Z,1023.55
2018-11-14T01:48:25.115Z,1023.57
2018-11-14T01:48:35.111Z,1023.58
2018-11-14T01:48:45.109Z,1023.59
2018-11-14T01:48:55.108Z,1023.54
2018-11-14T01:49:05.107Z,1023.57
2018-11-14T01:49:15.104Z,1023.56
2018-11-14T01:49:25.101Z,1023.56
2018-11-14T01:49:35.100Z,1023.57
2018-11-14T01:49:45.099Z,1023.57
2018-11-14T01:49:55.096Z,1023.58
2018-11-14T01:50:05.095Z,1023.56
2018-11-14T01:50:15.092Z,1023.56
2018-11-14T01:50:25.091Z,1023.54
2018-11-14T01:50:35.101Z,1023.61
2018-11-14T01:50:45.087Z,1023.58
2018-11-14T01:50:55.095Z,1023.58
2018-11-14T01:51:05.085Z,1023.59
2018-11-14T01:51:15.081Z,1023.55
2018-11-14T01:51:25.081Z,1023.57
2018-11-14T01:51:35.080Z,1023.57
2018-11-14T01:51:45.080Z,1023.57
2018-11-14T01:51:55.076Z,1023.56
2018-11-14T01:52:05.075Z,1023.55
2018-11-14T01:52:15.072Z,1023.53
2018-11-14T01:52:25.069Z,1023.55
2018-11-14T01:52:35.071Z,1023.57
2018-11-14T01:52:45.066Z,1023.58
2018-11-14T01:52:55.065Z,1023.56
2018-11-14T01:53:05.063Z,1023.56
2018-11-14T01:53:15.062Z,1023.55
2018-11-14T01:53:25.060Z,1023.59
2018-11-14T01:53:35.059Z,1023.56
2018-11-14T01:53:45.057Z,1023.58
2018-11-14T01:53:55.054Z,1023.55
2018-11-14T01:54:05.056Z,1023.57
2018-11-14T01:54:15.051Z,1023.59
2018-11-14T01:54:25.048Z,1023.58
2018-11-14T01:54:35.048Z,1023.59
2018-11-14T01:54:45.047Z,1023.60
2018-11-14T01:54:55.045Z,1023.61
2018-11-14T01:55:05.046Z,1023.59
2018-11-14T01:55:15.040Z,1023.55
2018-11-14T01:55:25.038Z,1023.57
2018-11-14T01:55:35.037Z,1023.55
2018-11-14T01:55:45.052Z,1023.58
2018-11-14T01:55:55.031Z,1023.59
2018-11-14T01:56:05.031Z,1023.55
2018-11-14T01:56:15.028Z,1023.56
2018-11-14T01:56:25.028Z,1023.56
2018-11-14T01:56:35.026Z,1023.55
2018-11-14T01:56:45.024Z,1023.53
2018-11-14T01:56:55.025Z,1023.57
2018-11-14T01:57:05.021Z,1023.56
2018-11-14T01:57:15.022Z,1023.57
2018-11-14T01:57:25.019Z,1023.55
2018-11-14T01:57:35.015Z,1023.54
2018-11-14T01:57:45.017Z,1023.53
2018-11-14T01:57:55.012Z,1023.54
2018-11-14T01:58:05.010Z,1023.52
2018-11-14T01:58:15.009Z,1023.55
2018-11-14T01:58:25.006Z,1023.57
2018-11-14T01:58:35.004Z,1023.53
2018-11-14T01:58:45.000Z,1023.56
2018-11-14T01:58:55.000Z,1023.57
2018-11-14T01:59:04.999Z,1023.57
2018-11-14T01:59:14.997Z,1023.55
2018-11-14T01:59:24.995Z,1023.57
2018-11-14T01:59:34.993Z,1023.58
2018-11-14T01:59:44.991Z,1023.54
2018-11-14T01:59:54.992Z,1023.58
2018-11-14T02:00:04.989Z,1023.59
2018-11-14T02:00:14.991Z,1023.57
2018-11-14T02:00:24.985Z,1023.57
2018-11-14T02:00:34.981Z,1023.57
2018-11-14T02:00:45.039Z,1023.56
2018-11-14T02:00:54.982Z,1023.54